sensor_id;sensor_type;location;lat;lon;timestamp;P1;durP1;ratioP1;P2;durP2;ratioP2
20078;SDS011;10199;48.850;8.924;2022-10-16T00:01:57;2.00;;;1.07;;
20078;SDS011;10199;48.850;8.924;2022-10-16T00:04:26;1.10;;;0.80;;
20078;SDS011;10199;48.850;8.924;2022-10-16T00:06:54;1.97;;;1.00;;
20078;SDS011;10199;48.850;8.924;2022-10-16T00:09:22;2.17;;;1.00;;
20078;SDS011;10199;48.850;8.924;2022-10-16T00:11:50;1.17;;;1.07;;
20078;SDS011;10199;48.850;8.924;2022-10-16T00:14:18;2.23;;;1.10;;
20078;SDS011;10199;48.850;8.924;2022-10-16T00:16:45;2.07;;;1.30;;
20078;SDS011;10199;48.850;8.924;2022-10-16T00:19:13;2.63;;;1.70;;
20078;SDS011;10199;48.850;8.924;2022-10-16T00:21:42;3.13;;;1.80;;
20078;SDS011;10199;48.850;8.924;2022-10-16T00:24:10;5.83;;;2.00;;
20078;SDS011;10199;48.850;8.924;2022-10-16T00:26:38;3.40;;;1.50;;
20078;SDS011;10199;48.850;8.924;2022-10-16T00:29:07;4.50;;;1.27;;
20078;SDS011;10199;48.850;8.924;2022-10-16T00:31:35;1.03;;;0.80;;
20078;SDS011;10199;48.850;8.924;2022-10-16T00:34:04;1.27;;;1.17;;
20078;SDS011;10199;48.850;8.924;2022-10-16T00:36:32;1.37;;;1.00;;
20078;SDS011;10199;48.850;8.924;2022-10-16T00:39:01;1.70;;;0.80;;
20078;SDS011;10199;48.850;8.924;2022-10-16T00:41:28;3.73;;;1.00;;
20078;SDS011;10199;48.850;8.924;2022-10-16T00:43:58;1.40;;;0.70;;
20078;SDS011;10199;48.850;8.924;2022-10-16T00:46:27;0.90;;;0.90;;
20078;SDS011;10199;48.850;8.924;2022-10-16T00:48:59;1.87;;;1.07;;
20078;SDS011;10199;48.850;8.924;2022-10-16T00:51:31;1.33;;;0.90;;
20078;SDS011;10199;48.850;8.924;2022-10-16T00:54:02;1.10;;;0.80;;
20078;SDS011;10199;48.850;8.924;2022-10-16T00:56:35;2.30;;;0.90;;
20078;SDS011;10199;48.850;8.924;2022-10-16T00:59:03;1.23;;;0.90;;
20078;SDS011;10199;48.850;8.924;2022-10-16T01:01:37;0.90;;;0.80;;
20078;SDS011;10199;48.850;8.924;2022-10-16T01:04:05;1.33;;;1.23;;
20078;SDS011;10199;48.850;8.924;2022-10-16T01:06:35;1.77;;;1.00;;
20078;SDS011;10199;48.850;8.924;2022-10-16T01:09:13;1.43;;;1.10;;
20078;SDS011;10199;48.850;8.924;2022-10-16T01:11:49;2.10;;;0.80;;
20078;SDS011;10199;48.850;8.924;2022-10-16T01:14:25;2.33;;;1.03;;
20078;SDS011;10199;48.850;8.924;2022-10-16T01:17:00;2.10;;;0.80;;
20078;SDS011;10199;48.850;8.924;2022-10-16T01:19:36;1.10;;;1.00;;
20078;SDS011;10199;48.850;8.924;2022-10-16T01:22:14;2.60;;;0.70;;
20078;SDS011;10199;48.850;8.924;2022-10-16T01:24:44;1.70;;;1.00;;
20078;SDS011;10199;48.850;8.924;2022-10-16T01:27:17;1.07;;;0.73;;
20078;SDS011;10199;48.850;8.924;2022-10-16T01:29:50;0.67;;;0.67;;
20078;SDS011;10199;48.850;8.924;2022-10-16T01:32:24;1.10;;;0.80;;
20078;SDS011;10199;48.850;8.924;2022-10-16T01:34:57;1.33;;;1.00;;
20078;SDS011;10199;48.850;8.924;2022-10-16T01:37:32;2.73;;;0.90;;
20078;SDS011;10199;48.850;8.924;2022-10-16T01:40:05;1.63;;;1.07;;
20078;SDS011;10199;48.850;8.924;2022-10-16T01:42:38;1.00;;;0.87;;
20078;SDS011;10199;48.850;8.924;2022-10-16T01:45:09;2.60;;;0.90;;
20078;SDS011;10199;48.850;8.924;2022-10-16T01:47:40;1.10;;;1.00;;
20078;SDS011;10199;48.850;8.924;2022-10-16T01:50:10;3.57;;;0.90;;
20078;SDS011;10199;48.850;8.924;2022-10-16T01:52:40;1.20;;;0.77;;
20078;SDS011;10199;48.850;8.924;2022-10-16T01:55:12;1.07;;;0.90;;
20078;SDS011;10199;48.850;8.924;2022-10-16T01:57:45;2.77;;;0.60;;
20078;SDS011;10199;48.850;8.924;2022-10-16T02:00:16;3.63;;;1.10;;
20078;SDS011;10199;48.850;8.924;2022-10-16T02:02:48;2.67;;;1.00;;
20078;SDS011;10199;48.850;8.924;2022-10-16T02:05:20;1.60;;;0.80;;
20078;SDS011;10199;48.850;8.924;2022-10-16T02:07:52;2.37;;;0.83;;
20078;SDS011;10199;48.850;8.924;2022-10-16T02:10:20;2.13;;;0.73;;
20078;SDS011;10199;48.850;8.924;2022-10-16T02:12:53;1.60;;;0.83;;
20078;SDS011;10199;48.850;8.924;2022-10-16T02:15:25;2.43;;;0.87;;
20078;SDS011;10199;48.850;8.924;2022-10-16T02:17:53;1.87;;;0.90;;
20078;SDS011;10199;48.850;8.924;2022-10-16T02:20:23;1.90;;;0.80;;
20078;SDS011;10199;48.850;8.924;2022-10-16T02:22:53;2.17;;;0.93;;
20078;SDS011;10199;48.850;8.924;2022-10-16T02:25:24;1.20;;;0.97;;
20078;SDS011;10199;48.850;8.924;2022-10-16T02:27:59;2.13;;;1.00;;
20078;SDS011;10199;48.850;8.924;2022-10-16T02:30:32;2.37;;;1.10;;
20078;SDS011;10199;48.850;8.924;2022-10-16T02:33:03;2.77;;;1.00;;
20078;SDS011;10199;48.850;8.924;2022-10-16T02:35:34;1.80;;;1.07;;
20078;SDS011;10199;48.850;8.924;2022-10-16T02:38:03;1.43;;;1.10;;
20078;SDS011;10199;48.850;8.924;2022-10-16T02:40:32;2.20;;;1.20;;
20078;SDS011;10199;48.850;8.924;2022-10-16T02:43:03;1.60;;;1.07;;
20078;SDS011;10199;48.850;8.924;2022-10-16T02:45:32;1.00;;;0.90;;
20078;SDS011;10199;48.850;8.924;2022-10-16T02:48:00;1.30;;;1.20;;
20078;SDS011;10199;48.850;8.924;2022-10-16T02:50:27;0.93;;;0.93;;
20078;SDS011;10199;48.850;8.924;2022-10-16T02:52:55;1.43;;;1.30;;
20078;SDS011;10199;48.850;8.924;2022-10-16T02:55:23;2.13;;;1.30;;
20078;SDS011;10199;48.850;8.924;2022-10-16T02:57:51;1.00;;;0.90;;
20078;SDS011;10199;48.850;8.924;2022-10-16T03:00:20;1.70;;;1.20;;
20078;SDS011;10199;48.850;8.924;2022-10-16T03:02:48;1.60;;;1.10;;
20078;SDS011;10199;48.850;8.924;2022-10-16T03:05:16;1.83;;;1.10;;
20078;SDS011;10199;48.850;8.924;2022-10-16T03:07:44;1.33;;;1.07;;
20078;SDS011;10199;48.850;8.924;2022-10-16T03:10:11;2.10;;;1.07;;
20078;SDS011;10199;48.850;8.924;2022-10-16T03:12:39;0.97;;;0.90;;
20078;SDS011;10199;48.850;8.924;2022-10-16T03:15:07;1.13;;;1.03;;
20078;SDS011;10199;48.850;8.924;2022-10-16T03:17:37;1.33;;;1.20;;
20078;SDS011;10199;48.850;8.924;2022-10-16T03:20:05;1.57;;;1.10;;
20078;SDS011;10199;48.850;8.924;2022-10-16T03:22:33;5.53;;;1.20;;
20078;SDS011;10199;48.850;8.924;2022-10-16T03:25:01;2.77;;;1.10;;
20078;SDS011;10199;48.850;8.924;2022-10-16T03:27:29;1.20;;;1.10;;
20078;SDS011;10199;48.850;8.924;2022-10-16T03:29:57;3.53;;;1.10;;
20078;SDS011;10199;48.850;8.924;2022-10-16T03:32:25;1.50;;;1.10;;
20078;SDS011;10199;48.850;8.924;2022-10-16T03:34:56;1.77;;;1.20;;
20078;SDS011;10199;48.850;8.924;2022-10-16T03:37:23;2.27;;;1.20;;
20078;SDS011;10199;48.850;8.924;2022-10-16T03:39:51;2.10;;;1.40;;
20078;SDS011;10199;48.850;8.924;2022-10-16T03:42:20;1.83;;;1.40;;
20078;SDS011;10199;48.850;8.924;2022-10-16T03:44:47;1.27;;;1.17;;
20078;SDS011;10199;48.850;8.924;2022-10-16T03:47:15;1.27;;;1.10;;
20078;SDS011;10199;48.850;8.924;2022-10-16T03:49:47;1.73;;;1.10;;
20078;SDS011;10199;48.850;8.924;2022-10-16T03:52:16;2.33;;;1.20;;
20078;SDS011;10199;48.850;8.924;2022-10-16T03:54:44;4.53;;;1.03;;
20078;SDS011;10199;48.850;8.924;2022-10-16T03:57:12;2.77;;;1.20;;
20078;SDS011;10199;48.850;8.924;2022-10-16T03:59:39;3.57;;;1.30;;
20078;SDS011;10199;48.850;8.924;2022-10-16T04:02:07;1.63;;;1.20;;
20078;SDS011;10199;48.850;8.924;2022-10-16T04:04:35;4.30;;;1.23;;
20078;SDS011;10199;48.850;8.924;2022-10-16T04:07:03;2.30;;;1.33;;
20078;SDS011;10199;48.850;8.924;2022-10-16T04:09:32;2.17;;;1.17;;
20078;SDS011;10199;48.850;8.924;2022-10-16T04:12:00;1.20;;;1.10;;
20078;SDS011;10199;48.850;8.924;2022-10-16T04:14:27;1.57;;;1.20;;
20078;SDS011;10199;48.850;8.924;2022-10-16T04:16:55;1.53;;;0.90;;
20078;SDS011;10199;48.850;8.924;2022-10-16T04:19:23;2.83;;;1.00;;
20078;SDS011;10199;48.850;8.924;2022-10-16T04:21:51;1.10;;;1.00;;
20078;SDS011;10199;48.850;8.924;2022-10-16T04:24:18;3.00;;;1.20;;
20078;SDS011;10199;48.850;8.924;2022-10-16T04:26:47;1.70;;;1.27;;
20078;SDS011;10199;48.850;8.924;2022-10-16T04:29:15;1.90;;;1.07;;
20078;SDS011;10199;48.850;8.924;2022-10-16T04:31:43;3.03;;;1.27;;
20078;SDS011;10199;48.850;8.924;2022-10-16T04:34:11;1.67;;;1.30;;
20078;SDS011;10199;48.850;8.924;2022-10-16T04:36:38;1.47;;;1.00;;
20078;SDS011;10199;48.850;8.924;2022-10-16T04:39:06;1.20;;;1.10;;
20078;SDS011;10199;48.850;8.924;2022-10-16T04:41:34;1.83;;;1.03;;
20078;SDS011;10199;48.850;8.924;2022-10-16T04:44:03;1.10;;;1.00;;
20078;SDS011;10199;48.850;8.924;2022-10-16T04:46:30;1.40;;;1.27;;
20078;SDS011;10199;48.850;8.924;2022-10-16T04:48:58;3.23;;;1.20;;
20078;SDS011;10199;48.850;8.924;2022-10-16T04:51:26;2.03;;;1.10;;
20078;SDS011;10199;48.850;8.924;2022-10-16T04:53:54;2.20;;;1.17;;
20078;SDS011;10199;48.850;8.924;2022-10-16T04:56:22;1.70;;;1.13;;
20078;SDS011;10199;48.850;8.924;2022-10-16T04:58:50;1.30;;;1.20;;
20078;SDS011;10199;48.850;8.924;2022-10-16T05:01:19;1.20;;;1.00;;
20078;SDS011;10199;48.850;8.924;2022-10-16T05:03:47;2.17;;;0.90;;
20078;SDS011;10199;48.850;8.924;2022-10-16T05:06:15;1.63;;;1.20;;
20078;SDS011;10199;48.850;8.924;2022-10-16T05:08:42;2.43;;;1.13;;
20078;SDS011;10199;48.850;8.924;2022-10-16T05:11:10;3.80;;;1.67;;
20078;SDS011;10199;48.850;8.924;2022-10-16T05:13:38;1.30;;;1.20;;
20078;SDS011;10199;48.850;8.924;2022-10-16T05:16:06;2.83;;;1.87;;
20078;SDS011;10199;48.850;8.924;2022-10-16T05:18:35;3.10;;;2.80;;
20078;SDS011;10199;48.850;8.924;2022-10-16T05:21:03;8.57;;;7.30;;
20078;SDS011;10199;48.850;8.924;2022-10-16T05:23:33;15.30;;;11.63;;
20078;SDS011;10199;48.850;8.924;2022-10-16T05:26:00;4.17;;;3.57;;
20078;SDS011;10199;48.850;8.924;2022-10-16T05:28:28;2.47;;;1.70;;
20078;SDS011;10199;48.850;8.924;2022-10-16T05:30:57;2.67;;;1.40;;
20078;SDS011;10199;48.850;8.924;2022-10-16T05:33:25;1.97;;;1.37;;
20078;SDS011;10199;48.850;8.924;2022-10-16T05:35:54;1.20;;;1.10;;
20078;SDS011;10199;48.850;8.924;2022-10-16T05:38:22;3.20;;;1.20;;
20078;SDS011;10199;48.850;8.924;2022-10-16T05:40:50;3.37;;;1.10;;
20078;SDS011;10199;48.850;8.924;2022-10-16T05:43:19;4.37;;;1.40;;
20078;SDS011;10199;48.850;8.924;2022-10-16T05:45:53;1.73;;;1.50;;
20078;SDS011;10199;48.850;8.924;2022-10-16T05:48:21;2.33;;;1.60;;
20078;SDS011;10199;48.850;8.924;2022-10-16T05:50:57;2.40;;;1.80;;
20078;SDS011;10199;48.850;8.924;2022-10-16T05:53:26;2.40;;;1.80;;
20078;SDS011;10199;48.850;8.924;2022-10-16T05:55:55;1.23;;;1.13;;
20078;SDS011;10199;48.850;8.924;2022-10-16T05:58:23;3.73;;;1.80;;
20078;SDS011;10199;48.850;8.924;2022-10-16T06:00:52;1.20;;;1.17;;
20078;SDS011;10199;48.850;8.924;2022-10-16T06:03:21;2.93;;;1.47;;
20078;SDS011;10199;48.850;8.924;2022-10-16T06:05:49;1.43;;;1.20;;
20078;SDS011;10199;48.850;8.924;2022-10-16T06:08:19;1.30;;;1.10;;
20078;SDS011;10199;48.850;8.924;2022-10-16T06:10:49;4.20;;;1.20;;
20078;SDS011;10199;48.850;8.924;2022-10-16T06:13:28;2.07;;;1.00;;
20078;SDS011;10199;48.850;8.924;2022-10-16T06:15:56;2.03;;;1.10;;
20078;SDS011;10199;48.850;8.924;2022-10-16T06:18:25;5.70;;;1.43;;
20078;SDS011;10199;48.850;8.924;2022-10-16T06:20:53;2.73;;;1.57;;
20078;SDS011;10199;48.850;8.924;2022-10-16T06:23:23;2.27;;;1.10;;
20078;SDS011;10199;48.850;8.924;2022-10-16T06:25:51;2.20;;;1.27;;
20078;SDS011;10199;48.850;8.924;2022-10-16T06:28:19;2.00;;;1.80;;
20078;SDS011;10199;48.850;8.924;2022-10-16T06:30:46;6.17;;;1.70;;
20078;SDS011;10199;48.850;8.924;2022-10-16T06:33:14;1.30;;;1.17;;
20078;SDS011;10199;48.850;8.924;2022-10-16T06:35:42;3.43;;;1.33;;
20078;SDS011;10199;48.850;8.924;2022-10-16T06:38:10;3.97;;;1.47;;
20078;SDS011;10199;48.850;8.924;2022-10-16T06:40:39;3.40;;;1.50;;
20078;SDS011;10199;48.850;8.924;2022-10-16T06:43:07;2.57;;;1.53;;
20078;SDS011;10199;48.850;8.924;2022-10-16T06:45:34;1.40;;;1.30;;
20078;SDS011;10199;48.850;8.924;2022-10-16T06:48:02;2.40;;;1.40;;
20078;SDS011;10199;48.850;8.924;2022-10-16T06:50:30;2.47;;;2.07;;
20078;SDS011;10199;48.850;8.924;2022-10-16T06:52:58;2.70;;;1.87;;
20078;SDS011;10199;48.850;8.924;2022-10-16T06:55:26;2.43;;;1.40;;
20078;SDS011;10199;48.850;8.924;2022-10-16T06:57:55;2.97;;;2.20;;
20078;SDS011;10199;48.850;8.924;2022-10-16T07:00:23;2.47;;;1.80;;
20078;SDS011;10199;48.850;8.924;2022-10-16T07:02:51;2.37;;;1.40;;
20078;SDS011;10199;48.850;8.924;2022-10-16T07:05:18;1.70;;;1.57;;
20078;SDS011;10199;48.850;8.924;2022-10-16T07:07:46;5.17;;;1.70;;
20078;SDS011;10199;48.850;8.924;2022-10-16T07:10:14;2.03;;;1.50;;
20078;SDS011;10199;48.850;8.924;2022-10-16T07:12:42;2.47;;;1.50;;
20078;SDS011;10199;48.850;8.924;2022-10-16T07:15:12;6.70;;;1.70;;
20078;SDS011;10199;48.850;8.924;2022-10-16T07:17:41;1.93;;;1.40;;
20078;SDS011;10199;48.850;8.924;2022-10-16T07:20:09;5.03;;;1.50;;
20078;SDS011;10199;48.850;8.924;2022-10-16T07:22:37;4.27;;;2.07;;
20078;SDS011;10199;48.850;8.924;2022-10-16T07:25:05;2.83;;;1.80;;
20078;SDS011;10199;48.850;8.924;2022-10-16T07:27:34;4.00;;;2.03;;
20078;SDS011;10199;48.850;8.924;2022-10-16T07:30:03;3.00;;;1.80;;
20078;SDS011;10199;48.850;8.924;2022-10-16T07:32:34;1.50;;;1.40;;
20078;SDS011;10199;48.850;8.924;2022-10-16T07:35:02;2.97;;;1.67;;
20078;SDS011;10199;48.850;8.924;2022-10-16T07:37:30;2.30;;;1.63;;
20078;SDS011;10199;48.850;8.924;2022-10-16T07:39:58;1.67;;;1.17;;
20078;SDS011;10199;48.850;8.924;2022-10-16T07:42:26;1.73;;;1.50;;
20078;SDS011;10199;48.850;8.924;2022-10-16T07:44:54;5.73;;;2.30;;
20078;SDS011;10199;48.850;8.924;2022-10-16T07:47:22;4.87;;;3.10;;
20078;SDS011;10199;48.850;8.924;2022-10-16T07:49:51;5.27;;;2.10;;
20078;SDS011;10199;48.850;8.924;2022-10-16T07:52:19;3.03;;;2.30;;
20078;SDS011;10199;48.850;8.924;2022-10-16T07:54:47;1.57;;;1.10;;
20078;SDS011;10199;48.850;8.924;2022-10-16T07:57:15;2.20;;;1.30;;
20078;SDS011;10199;48.850;8.924;2022-10-16T07:59:45;1.40;;;1.30;;
20078;SDS011;10199;48.850;8.924;2022-10-16T08:02:13;2.73;;;1.40;;
20078;SDS011;10199;48.850;8.924;2022-10-16T08:04:41;2.60;;;1.30;;
20078;SDS011;10199;48.850;8.924;2022-10-16T08:07:10;1.80;;;1.53;;
20078;SDS011;10199;48.850;8.924;2022-10-16T08:09:38;3.87;;;1.77;;
20078;SDS011;10199;48.850;8.924;2022-10-16T08:12:06;1.50;;;1.20;;
20078;SDS011;10199;48.850;8.924;2022-10-16T08:14:36;2.80;;;1.20;;
20078;SDS011;10199;48.850;8.924;2022-10-16T08:17:04;0.80;;;0.80;;
20078;SDS011;10199;48.850;8.924;2022-10-16T08:19:32;3.30;;;1.13;;
20078;SDS011;10199;48.850;8.924;2022-10-16T08:22:00;3.87;;;1.20;;
20078;SDS011;10199;48.850;8.924;2022-10-16T08:24:30;1.20;;;1.00;;
20078;SDS011;10199;48.850;8.924;2022-10-16T08:26:58;1.27;;;1.10;;
20078;SDS011;10199;48.850;8.924;2022-10-16T08:29:26;3.35;;;1.35;;
20078;SDS011;10199;48.850;8.924;2022-10-16T08:31:54;1.70;;;1.07;;
20078;SDS011;10199;48.850;8.924;2022-10-16T08:34:22;2.07;;;1.03;;
20078;SDS011;10199;48.850;8.924;2022-10-16T08:36:49;1.38;;;1.05;;
20078;SDS011;10199;48.850;8.924;2022-10-16T08:39:20;1.63;;;1.20;;
20078;SDS011;10199;48.850;8.924;2022-10-16T08:41:57;1.42;;;1.15;;
20078;SDS011;10199;48.850;8.924;2022-10-16T08:44:40;3.37;;;1.37;;
20078;SDS011;10199;48.850;8.924;2022-10-16T08:47:35;1.90;;;1.20;;
20078;SDS011;10199;48.850;8.924;2022-10-16T08:50:12;2.50;;;1.10;;
20078;SDS011;10199;48.850;8.924;2022-10-16T08:52:41;2.67;;;1.17;;
20078;SDS011;10199;48.850;8.924;2022-10-16T08:55:16;2.10;;;1.47;;
20078;SDS011;10199;48.850;8.924;2022-10-16T08:57:56;3.78;;;2.10;;
20078;SDS011;10199;48.850;8.924;2022-10-16T09:00:24;1.92;;;1.40;;
20078;SDS011;10199;48.850;8.924;2022-10-16T09:02:56;1.45;;;1.05;;
20078;SDS011;10199;48.850;8.924;2022-10-16T09:05:43;1.92;;;1.80;;
20078;SDS011;10199;48.850;8.924;2022-10-16T09:08:21;2.55;;;1.50;;
20078;SDS011;10199;48.850;8.924;2022-10-16T09:10:56;1.45;;;1.13;;
20078;SDS011;10199;48.850;8.924;2022-10-16T09:13:29;1.48;;;1.10;;
20078;SDS011;10199;48.850;8.924;2022-10-16T09:16:09;2.65;;;1.30;;
20078;SDS011;10199;48.850;8.924;2022-10-16T09:18:45;4.57;;;1.20;;
20078;SDS011;10199;48.850;8.924;2022-10-16T09:21:19;1.38;;;0.95;;
20078;SDS011;10199;48.850;8.924;2022-10-16T09:23:50;1.58;;;1.17;;
20078;SDS011;10199;48.850;8.924;2022-10-16T09:26:18;2.67;;;1.10;;
20078;SDS011;10199;48.850;8.924;2022-10-16T09:28:51;2.53;;;1.30;;
20078;SDS011;10199;48.850;8.924;2022-10-16T09:31:20;2.38;;;1.60;;
20078;SDS011;10199;48.850;8.924;2022-10-16T09:33:51;2.40;;;1.10;;
20078;SDS011;10199;48.850;8.924;2022-10-16T09:36:23;1.60;;;1.30;;
20078;SDS011;10199;48.850;8.924;2022-10-16T09:39:01;1.40;;;1.10;;
20078;SDS011;10199;48.850;8.924;2022-10-16T09:41:33;1.73;;;1.20;;
20078;SDS011;10199;48.850;8.924;2022-10-16T09:44:05;1.50;;;1.35;;
20078;SDS011;10199;48.850;8.924;2022-10-16T09:46:46;2.03;;;1.05;;
20078;SDS011;10199;48.850;8.924;2022-10-16T09:49:19;2.13;;;1.25;;
20078;SDS011;10199;48.850;8.924;2022-10-16T09:51:49;2.58;;;1.63;;
20078;SDS011;10199;48.850;8.924;2022-10-16T09:54:18;1.52;;;1.05;;
20078;SDS011;10199;48.850;8.924;2022-10-16T09:56:48;4.03;;;1.75;;
20078;SDS011;10199;48.850;8.924;2022-10-16T09:59:19;3.20;;;1.60;;
20078;SDS011;10199;48.850;8.924;2022-10-16T10:01:50;1.98;;;1.77;;
20078;SDS011;10199;48.850;8.924;2022-10-16T10:04:20;2.00;;;1.30;;
20078;SDS011;10199;48.850;8.924;2022-10-16T10:06:50;1.73;;;1.20;;
20078;SDS011;10199;48.850;8.924;2022-10-16T10:09:21;2.65;;;2.22;;
20078;SDS011;10199;48.850;8.924;2022-10-16T10:11:51;5.18;;;3.08;;
20078;SDS011;10199;48.850;8.924;2022-10-16T10:14:23;2.55;;;1.42;;
20078;SDS011;10199;48.850;8.924;2022-10-16T10:17:02;2.30;;;2.10;;
20078;SDS011;10199;48.850;8.924;2022-10-16T10:19:37;3.60;;;1.45;;
20078;SDS011;10199;48.850;8.924;2022-10-16T10:22:15;1.80;;;0.90;;
20078;SDS011;10199;48.850;8.924;2022-10-16T10:24:45;3.17;;;1.25;;
20078;SDS011;10199;48.850;8.924;2022-10-16T10:27:23;2.33;;;1.35;;
20078;SDS011;10199;48.850;8.924;2022-10-16T10:29:59;2.15;;;1.40;;
20078;SDS011;10199;48.850;8.924;2022-10-16T10:32:32;1.35;;;1.15;;
20078;SDS011;10199;48.850;8.924;2022-10-16T10:35:11;3.10;;;1.15;;
20078;SDS011;10199;48.850;8.924;2022-10-16T10:37:55;2.45;;;1.27;;
20078;SDS011;10199;48.850;8.924;2022-10-16T10:40:40;1.80;;;1.05;;
20078;SDS011;10199;48.850;8.924;2022-10-16T10:43:17;3.38;;;1.30;;
20078;SDS011;10199;48.850;8.924;2022-10-16T10:46:02;1.88;;;1.25;;
20078;SDS011;10199;48.850;8.924;2022-10-16T10:51:28;2.33;;;1.40;;
20078;SDS011;10199;48.850;8.924;2022-10-16T10:54:07;4.25;;;1.30;;
20078;SDS011;10199;48.850;8.924;2022-10-16T10:56:42;2.95;;;1.63;;
20078;SDS011;10199;48.850;8.924;2022-10-16T10:59:28;1.75;;;1.33;;
20078;SDS011;10199;48.850;8.924;2022-10-16T11:02:04;2.45;;;1.20;;
20078;SDS011;10199;48.850;8.924;2022-10-16T11:04:45;1.23;;;1.00;;
20078;SDS011;10199;48.850;8.924;2022-10-16T11:07:37;3.63;;;1.35;;
20078;SDS011;10199;48.850;8.924;2022-10-16T11:10:12;2.15;;;1.10;;
20078;SDS011;10199;48.850;8.924;2022-10-16T11:12:46;1.23;;;1.13;;
20078;SDS011;10199;48.850;8.924;2022-10-16T11:15:18;2.60;;;1.17;;
20078;SDS011;10199;48.850;8.924;2022-10-16T11:17:50;1.38;;;0.95;;
20078;SDS011;10199;48.850;8.924;2022-10-16T11:20:23;1.67;;;1.10;;
20078;SDS011;10199;48.850;8.924;2022-10-16T11:22:54;1.10;;;1.00;;
20078;SDS011;10199;48.850;8.924;2022-10-16T11:25:27;1.67;;;1.00;;
20078;SDS011;10199;48.850;8.924;2022-10-16T11:28:03;1.40;;;1.02;;
20078;SDS011;10199;48.850;8.924;2022-10-16T11:30:40;1.05;;;1.00;;
20078;SDS011;10199;48.850;8.924;2022-10-16T11:33:25;0.90;;;0.90;;
20078;SDS011;10199;48.850;8.924;2022-10-16T11:36:00;1.73;;;1.20;;
20078;SDS011;10199;48.850;8.924;2022-10-16T11:38:37;2.40;;;1.00;;
20078;SDS011;10199;48.850;8.924;2022-10-16T11:41:13;1.08;;;0.90;;
20078;SDS011;10199;48.850;8.924;2022-10-16T11:43:48;1.98;;;1.20;;
20078;SDS011;10199;48.850;8.924;2022-10-16T11:46:25;1.10;;;1.00;;
20078;SDS011;10199;48.850;8.924;2022-10-16T11:48:57;2.00;;;1.00;;
20078;SDS011;10199;48.850;8.924;2022-10-16T11:51:31;1.13;;;1.02;;
20078;SDS011;10199;48.850;8.924;2022-10-16T11:54:04;1.60;;;1.10;;
20078;SDS011;10199;48.850;8.924;2022-10-16T11:56:43;2.40;;;1.00;;
20078;SDS011;10199;48.850;8.924;2022-10-16T11:59:16;4.13;;;1.10;;
20078;SDS011;10199;48.850;8.924;2022-10-16T12:01:54;1.40;;;1.30;;
20078;SDS011;10199;48.850;8.924;2022-10-16T12:04:30;2.13;;;1.10;;
20078;SDS011;10199;48.850;8.924;2022-10-16T12:07:06;1.20;;;0.85;;
20078;SDS011;10199;48.850;8.924;2022-10-16T12:09:39;2.08;;;1.40;;
20078;SDS011;10199;48.850;8.924;2022-10-16T12:12:23;1.13;;;1.00;;
20078;SDS011;10199;48.850;8.924;2022-10-16T12:14:59;2.15;;;1.23;;
20078;SDS011;10199;48.850;8.924;2022-10-16T12:17:40;3.28;;;1.10;;
20078;SDS011;10199;48.850;8.924;2022-10-16T12:20:26;1.25;;;1.00;;
20078;SDS011;10199;48.850;8.924;2022-10-16T12:22:59;4.50;;;1.40;;
20078;SDS011;10199;48.850;8.924;2022-10-16T12:25:29;2.15;;;1.20;;
20078;SDS011;10199;48.850;8.924;2022-10-16T12:28:00;3.45;;;1.10;;
20078;SDS011;10199;48.850;8.924;2022-10-16T12:30:30;7.75;;;1.30;;
20078;SDS011;10199;48.850;8.924;2022-10-16T12:33:01;1.50;;;1.30;;
20078;SDS011;10199;48.850;8.924;2022-10-16T12:35:33;2.88;;;1.10;;
20078;SDS011;10199;48.850;8.924;2022-10-16T12:38:15;1.00;;;1.00;;
20078;SDS011;10199;48.850;8.924;2022-10-16T12:40:45;1.98;;;1.20;;
20078;SDS011;10199;48.850;8.924;2022-10-16T12:43:24;2.20;;;1.30;;
20078;SDS011;10199;48.850;8.924;2022-10-16T12:46:01;2.50;;;1.13;;
20078;SDS011;10199;48.850;8.924;2022-10-16T12:48:31;4.63;;;1.20;;
20078;SDS011;10199;48.850;8.924;2022-10-16T12:51:19;3.75;;;1.10;;
20078;SDS011;10199;48.850;8.924;2022-10-16T12:53:57;1.80;;;0.82;;
20078;SDS011;10199;48.850;8.924;2022-10-16T12:56:28;6.35;;;1.23;;
20078;SDS011;10199;48.850;8.924;2022-10-16T12:59:09;3.03;;;1.17;;
20078;SDS011;10199;48.850;8.924;2022-10-16T13:01:52;1.17;;;1.00;;
20078;SDS011;10199;48.850;8.924;2022-10-16T13:04:34;1.63;;;1.23;;
20078;SDS011;10199;48.850;8.924;2022-10-16T13:07:20;1.83;;;1.08;;
20078;SDS011;10199;48.850;8.924;2022-10-16T13:10:08;3.75;;;1.20;;
20078;SDS011;10199;48.850;8.924;2022-10-16T13:12:50;2.25;;;1.20;;
20078;SDS011;10199;48.850;8.924;2022-10-16T13:18:21;1.33;;;1.13;;
20078;SDS011;10199;48.850;8.924;2022-10-16T13:21:00;3.15;;;1.45;;
20078;SDS011;10199;48.850;8.924;2022-10-16T13:23:42;1.88;;;1.30;;
20078;SDS011;10199;48.850;8.924;2022-10-16T13:26:23;1.65;;;1.20;;
20078;SDS011;10199;48.850;8.924;2022-10-16T13:28:58;2.70;;;1.10;;
20078;SDS011;10199;48.850;8.924;2022-10-16T13:31:27;3.17;;;1.20;;
20078;SDS011;10199;48.850;8.924;2022-10-16T13:33:57;1.77;;;1.40;;
20078;SDS011;10199;48.850;8.924;2022-10-16T13:36:28;1.27;;;1.15;;
20078;SDS011;10199;48.850;8.924;2022-10-16T13:39:00;1.70;;;1.20;;
20078;SDS011;10199;48.850;8.924;2022-10-16T13:41:34;5.07;;;1.17;;
20078;SDS011;10199;48.850;8.924;2022-10-16T13:44:02;2.05;;;1.15;;
20078;SDS011;10199;48.850;8.924;2022-10-16T13:46:30;1.83;;;1.40;;
20078;SDS011;10199;48.850;8.924;2022-10-16T13:49:01;3.65;;;1.38;;
20078;SDS011;10199;48.850;8.924;2022-10-16T13:51:30;1.15;;;1.00;;
20078;SDS011;10199;48.850;8.924;2022-10-16T13:54:00;3.63;;;1.20;;
20078;SDS011;10199;48.850;8.924;2022-10-16T13:56:29;1.88;;;0.93;;
20078;SDS011;10199;48.850;8.924;2022-10-16T13:58:58;1.40;;;1.25;;
20078;SDS011;10199;48.850;8.924;2022-10-16T14:01:27;3.67;;;1.40;;
20078;SDS011;10199;48.850;8.924;2022-10-16T14:04:03;2.83;;;1.05;;
20078;SDS011;10199;48.850;8.924;2022-10-16T14:06:33;2.63;;;1.05;;
20078;SDS011;10199;48.850;8.924;2022-10-16T14:09:06;2.83;;;1.02;;
20078;SDS011;10199;48.850;8.924;2022-10-16T14:11:37;2.80;;;1.50;;
20078;SDS011;10199;48.850;8.924;2022-10-16T14:14:12;2.75;;;1.50;;
20078;SDS011;10199;48.850;8.924;2022-10-16T14:16:40;1.52;;;1.42;;
20078;SDS011;10199;48.850;8.924;2022-10-16T14:19:14;1.60;;;1.50;;
20078;SDS011;10199;48.850;8.924;2022-10-16T14:21:46;2.35;;;1.75;;
20078;SDS011;10199;48.850;8.924;2022-10-16T14:24:22;1.55;;;1.35;;
20078;SDS011;10199;48.850;8.924;2022-10-16T14:26:53;1.98;;;1.38;;
20078;SDS011;10199;48.850;8.924;2022-10-16T14:29:23;1.88;;;0.90;;
20078;SDS011;10199;48.850;8.924;2022-10-16T14:31:55;1.45;;;1.33;;
20078;SDS011;10199;48.850;8.924;2022-10-16T14:34:31;4.13;;;1.20;;
20078;SDS011;10199;48.850;8.924;2022-10-16T14:37:00;1.55;;;1.27;;
20078;SDS011;10199;48.850;8.924;2022-10-16T14:39:39;3.42;;;1.45;;
20078;SDS011;10199;48.850;8.924;2022-10-16T14:42:11;2.67;;;1.23;;
20078;SDS011;10199;48.850;8.924;2022-10-16T14:44:43;3.70;;;1.30;;
20078;SDS011;10199;48.850;8.924;2022-10-16T14:47:12;1.48;;;1.20;;
20078;SDS011;10199;48.850;8.924;2022-10-16T14:49:43;2.92;;;1.35;;
20078;SDS011;10199;48.850;8.924;2022-10-16T14:52:11;1.33;;;1.23;;
20078;SDS011;10199;48.850;8.924;2022-10-16T14:54:40;2.20;;;1.30;;
20078;SDS011;10199;48.850;8.924;2022-10-16T14:57:15;2.95;;;1.13;;
20078;SDS011;10199;48.850;8.924;2022-10-16T14:59:45;2.00;;;1.30;;
20078;SDS011;10199;48.850;8.924;2022-10-16T15:02:16;2.55;;;1.50;;
20078;SDS011;10199;48.850;8.924;2022-10-16T15:04:48;2.80;;;1.30;;
20078;SDS011;10199;48.850;8.924;2022-10-16T15:07:16;1.80;;;1.45;;
20078;SDS011;10199;48.850;8.924;2022-10-16T15:09:45;2.95;;;1.42;;
20078;SDS011;10199;48.850;8.924;2022-10-16T15:12:13;2.70;;;1.40;;
20078;SDS011;10199;48.850;8.924;2022-10-16T15:14:41;1.60;;;1.38;;
20078;SDS011;10199;48.850;8.924;2022-10-16T15:17:09;1.40;;;1.30;;
20078;SDS011;10199;48.850;8.924;2022-10-16T15:19:38;3.92;;;1.30;;